Time;durP1;ratioP1;P1;durP2;ratioP2;P2;SDS_P1;SDS_P2;PMS_P1;PMS_P2;Temp;Humidity;BMP_temperature;BMP_pressure;BME280_temperature;BME280_humidity;BME280_pressure;Samples;Min_cycle;Max_cycle;Signal;HPM_P1;HPM_P2
2022/04/12 00:00:01;;;;;;;4.90;2.60;;;10.40;89.10;;;;;;5011394;28;20186;-74
2022/04/12 00:02:28;;;;;;;5.83;2.83;;;10.40;87.60;;;;;;5029183;28;20292;-73
2022/04/12 00:04:54;;;;;;;3.50;2.20;;;10.50;87.10;;;;;;5029004;28;20208;-73
2022/04/12 00:07:20;;;;;;;3.00;2.60;;;10.50;86.30;;;;;;5028796;28;20540;-73
2022/04/12 00:09:46;;;;;;;4.20;2.63;;;10.50;86.20;;;;;;5028776;28;20503;-73
2022/04/12 00:12:14;;;;;;;3.43;2.57;;;10.60;85.30;;;;;;5028950;28;20501;-73
2022/04/12 00:14:39;;;;;;;4.43;2.97;;;10.60;85.80;;;;;;5011777;28;20183;-73
2022/04/12 00:19:49;;;;;;;4.63;2.37;;;10.60;85.60;;;;;;5028856;28;20188;-74
2022/04/12 00:22:15;;;;;;;2.83;2.30;;;10.70;84.60;;;;;;5010841;28;20423;-74
2022/04/12 00:24:40;;;;;;;2.40;2.20;;;10.60;85.50;;;;;;5028781;28;20260;-74
2022/04/12 00:27:06;;;;;;;5.60;2.60;;;10.60;85.60;;;;;;5028882;28;20221;-73
2022/04/12 00:29:33;;;;;;;3.47;2.50;;;10.50;85.70;;;;;;5028675;28;20299;-74
2022/04/12 00:31:59;;;;;;;3.37;2.80;;;10.50;86.40;;;;;;5028126;28;20186;-73
2022/04/12 00:34:25;;;;;;;2.10;1.90;;;10.40;86.40;;;;;;5028032;28;20431;-73
2022/04/12 00:36:50;;;;;;;2.93;2.60;;;10.40;85.90;;;;;;5028290;28;20495;-73
2022/04/12 00:39:16;;;;;;;7.00;3.80;;;10.40;85.10;;;;;;5028451;28;20181;-74
2022/04/12 00:41:42;;;;;;;7.37;5.30;;;10.30;90.20;;;;;;5029050;28;20633;-73
2022/04/12 00:44:09;;;;;;;6.87;5.17;;;10.00;93.30;;;;;;5010922;28;20276;-73
2022/04/12 00:46:35;;;;;;;11.73;7.13;;;9.70;95.70;;;;;;5028568;28;21010;-73
2022/04/12 00:49:01;;;;;;;7.00;5.80;;;9.30;97.40;;;;;;5010653;28;20427;-73
2022/04/12 00:51:27;;;;;;;7.60;6.47;;;9.10;99.10;;;;;;5028675;28;20463;-73
2022/04/12 00:53:54;;;;;;;9.00;6.07;;;9.00;99.40;;;;;;5028595;28;20186;-73
2022/04/12 00:56:19;;;;;;;9.87;7.10;;;8.90;99.90;;;;;;5010877;28;20449;-73
2022/04/12 00:58:49;;;;;;;9.03;6.93;;;8.80;99.90;;;;;;5028662;28;20928;-75
2022/04/12 01:01:15;;;;;;;11.00;7.40;;;8.60;99.90;;;;;;5011746;28;20183;-75
2022/04/12 01:03:41;;;;;;;12.20;7.30;;;8.60;99.90;;;;;;5011415;28;20878;-76
2022/04/12 01:06:07;;;;;;;17.43;6.93;;;8.50;99.90;;;;;;5029157;28;20431;-75
2022/04/12 01:08:34;;;;;;;10.57;7.60;;;8.40;99.90;;;;;;5029263;28;20458;-75
2022/04/12 01:11:06;;;;;;;12.20;7.07;;;8.40;99.90;;;;;;5029263;28;20422;-75
2022/04/12 01:13:35;;;;;;;7.53;5.80;;;8.30;99.90;;;;;;5012312;28;20916;-75
2022/04/12 01:16:01;;;;;;;6.40;4.93;;;8.30;99.90;;;;;;5011729;28;20443;-75
2022/04/12 01:18:26;;;;;;;7.40;4.63;;;8.20;99.90;;;;;;5011322;28;20416;-75
2022/04/12 01:20:52;;;;;;;8.47;5.77;;;8.20;99.90;;;;;;5029076;28;20188;-74
2022/04/12 01:23:50;;;;;;;8.60;6.27;;;8.20;99.90;;;;;;5028919;28;20657;-75
2022/04/12 01:26:15;;;;;;;8.00;4.80;;;8.10;99.90;;;;;;5014318;28;20486;-75
2022/04/12 01:28:44;;;;;;;5.80;3.40;;;8.00;99.90;;;;;;5028498;28;20466;-74
2022/04/12 01:31:10;;;;;;;7.67;4.60;;;8.00;99.90;;;;;;5028387;28;20268;-74
2022/04/12 01:33:36;;;;;;;5.63;4.30;;;8.00;99.90;;;;;;5028453;28;20505;-74
2022/04/12 01:36:02;;;;;;;4.50;3.80;;;7.90;99.90;;;;;;5028333;28;20653;-75
2022/04/12 01:38:28;;;;;;;4.30;3.60;;;7.80;99.90;;;;;;5028513;28;20184;-75
2022/04/12 01:40:54;;;;;;;5.67;4.17;;;7.80;99.90;;;;;;5028429;28;20311;-75
2022/04/12 01:43:19;;;;;;;6.10;3.80;;;7.70;99.90;;;;;;5010744;28;20979;-75
2022/04/12 01:45:45;;;;;;;5.33;4.07;;;7.60;99.90;;;;;;4997800;28;20450;-74
2022/04/12 01:48:11;;;;;;;15.73;3.80;;;7.60;99.90;;;;;;4997984;28;20188;-73
2022/04/12 01:50:36;;;;;;;7.13;4.20;;;7.50;99.90;;;;;;5031994;28;20712;-73
2022/04/12 01:53:02;;;;;;;5.13;4.33;;;7.50;99.90;;;;;;5032654;28;20188;-72
2022/04/12 01:55:28;;;;;;;6.03;3.83;;;7.40;99.90;;;;;;5032614;28;20670;-73
2022/04/12 01:57:53;;;;;;;9.03;5.47;;;7.40;99.90;;;;;;5032752;28;20220;-73
2022/04/12 02:00:19;;;;;;;5.03;4.00;;;7.30;99.90;;;;;;5032756;28;20227;-73
2022/04/12 02:02:45;;;;;;;4.63;4.20;;;7.30;99.90;;;;;;5032799;28;20208;-73
2022/04/12 02:05:10;;;;;;;5.93;4.80;;;7.20;99.90;;;;;;5014667;28;20968;-73
2022/04/12 02:07:36;;;;;;;9.00;5.20;;;7.10;99.90;;;;;;5033047;28;20181;-74
2022/04/12 02:10:04;;;;;;;9.53;4.77;;;7.10;99.90;;;;;;5033104;28;20545;-74
2022/04/12 02:12:29;;;;;;;15.90;4.93;;;7.00;99.90;;;;;;5032998;28;20423;-73
2022/04/12 02:14:55;;;;;;;8.53;5.17;;;7.00;99.90;;;;;;5015274;28;20426;-74
2022/04/12 02:17:21;;;;;;;6.20;4.90;;;7.00;99.90;;;;;;5015449;28;20223;-73
2022/04/12 02:19:48;;;;;;;6.40;5.13;;;6.90;99.90;;;;;;5015037;28;20235;-72
2022/04/12 02:22:13;;;;;;;8.23;4.90;;;6.80;99.90;;;;;;5032216;28;20469;-73
2022/04/12 02:24:39;;;;;;;5.80;4.77;;;6.80;99.90;;;;;;5032253;28;20431;-73
2022/04/12 02:27:05;;;;;;;5.93;4.50;;;6.80;99.90;;;;;;5032214;28;20265;-74
2022/04/12 02:29:30;;;;;;;6.70;4.60;;;6.80;99.90;;;;;;5014874;28;20886;-74
2022/04/12 02:31:56;;;;;;;6.30;4.33;;;6.70;99.90;;;;;;5014786;28;20181;-73
2022/04/12 02:34:21;;;;;;;5.77;4.37;;;6.60;99.90;;;;;;5032084;28;20180;-73
2022/04/12 02:36:48;;;;;;;8.10;3.70;;;6.60;99.90;;;;;;5013978;28;20212;-73
2022/04/12 02:39:14;;;;;;;6.20;3.77;;;6.70;99.90;;;;;;5032145;28;20242;-74
2022/04/12 02:41:40;;;;;;;3.80;3.40;;;6.50;99.90;;;;;;5031885;28;20912;-74
2022/04/12 02:44:06;;;;;;;4.07;3.60;;;6.50;99.90;;;;;;5033304;28;20466;-74
2022/04/12 02:46:31;;;;;;;6.17;3.27;;;6.50;99.90;;;;;;5033335;28;20254;-75
2022/04/12 02:48:57;;;;;;;4.20;3.60;;;6.40;99.90;;;;;;4999463;28;20200;-74
2022/04/12 02:51:23;;;;;;;6.80;4.37;;;6.50;99.90;;;;;;5015234;28;20178;-70
2022/04/12 02:53:48;;;;;;;4.60;3.20;;;6.40;99.90;;;;;;5032176;28;20180;-70
2022/04/12 02:56:14;;;;;;;6.20;4.47;;;6.40;99.90;;;;;;5030809;28;20188;-70
2022/04/12 02:58:40;;;;;;;3.40;3.10;;;6.40;99.90;;;;;;5031674;28;20185;-70
2022/04/12 03:01:05;;;;;;;3.80;3.40;;;6.40;99.90;;;;;;5031266;28;20556;-70
2022/04/12 03:03:31;;;;;;;5.70;4.53;;;6.30;99.90;;;;;;5031001;28;20661;-70
2022/04/12 03:05:57;;;;;;;5.50;4.80;;;6.20;99.90;;;;;;5031316;28;20224;-70
2022/04/12 03:08:22;;;;;;;6.10;4.40;;;6.10;99.90;;;;;;5031604;28;20263;-70
2022/04/12 03:10:48;;;;;;;8.37;4.87;;;6.10;99.90;;;;;;5031216;28;20205;-70
2022/04/12 03:13:14;;;;;;;4.57;3.67;;;6.00;99.90;;;;;;5030945;28;20184;-69
2022/04/12 03:15:40;;;;;;;6.77;4.23;;;6.00;99.90;;;;;;5030846;28;20438;-70
2022/04/12 03:18:06;;;;;;;4.50;3.83;;;6.00;99.90;;;;;;5030766;28;20184;-70
2022/04/12 03:20:32;;;;;;;8.30;4.27;;;5.80;99.90;;;;;;5030739;28;20438;-71
2022/04/12 03:22:59;;;;;;;3.90;3.33;;;5.60;99.90;;;;;;5030780;28;20516;-70
2022/04/12 03:25:24;;;;;;;8.03;3.73;;;5.60;99.90;;;;;;5030527;28;20574;-69
2022/04/12 03:27:50;;;;;;;7.93;3.73;;;5.60;99.90;;;;;;5030566;28;20502;-71
2022/04/12 03:30:16;;;;;;;6.10;4.27;;;5.60;99.90;;;;;;5012804;28;20680;-71
2022/04/12 03:32:42;;;;;;;4.90;3.70;;;5.60;99.90;;;;;;5012245;28;20351;-70
2022/04/12 03:35:08;;;;;;;6.03;3.97;;;5.60;99.90;;;;;;5029962;28;21261;-70
2022/04/12 03:37:34;;;;;;;6.77;4.87;;;5.60;99.90;;;;;;5030194;28;21129;-70
2022/04/12 03:40:00;;;;;;;7.40;4.70;;;5.60;99.90;;;;;;5030355;28;20876;-70
2022/04/12 03:42:26;;;;;;;7.73;4.67;;;5.60;99.90;;;;;;5031130;28;20427;-70
2022/04/12 03:44:52;;;;;;;8.43;6.10;;;5.50;99.90;;;;;;5031027;28;20448;-70
2022/04/12 03:47:18;;;;;;;7.83;5.10;;;5.40;99.90;;;;;;5029977;28;20211;-71
2022/04/12 03:49:44;;;;;;;8.50;5.60;;;5.50;99.90;;;;;;5030194;28;20181;-71
2022/04/12 03:52:09;;;;;;;8.10;5.57;;;5.50;99.90;;;;;;5030231;28;20438;-70
2022/04/12 03:54:36;;;;;;;10.57;5.60;;;5.50;99.90;;;;;;5012335;28;20195;-71
2022/04/12 03:57:02;;;;;;;5.03;3.70;;;5.50;99.90;;;;;;5029169;28;20393;-71
2022/04/12 03:59:28;;;;;;;6.70;4.37;;;5.40;99.90;;;;;;5028518;28;20423;-70
2022/04/12 04:01:53;;;;;;;4.47;3.77;;;5.40;99.90;;;;;;5028733;28;20852;-70
2022/04/12 04:04:19;;;;;;;8.63;4.80;;;5.40;99.90;;;;;;5028782;28;20701;-70
2022/04/12 04:06:45;;;;;;;10.53;4.60;;;5.40;99.90;;;;;;5028426;28;20685;-70
2022/04/12 04:09:12;;;;;;;7.60;4.10;;;5.30;99.90;;;;;;5028598;28;20316;-71
2022/04/12 04:11:40;;;;;;;6.37;5.00;;;5.30;99.90;;;;;;5028320;28;20423;-70
2022/04/12 04:14:06;;;;;;;7.97;5.23;;;5.30;99.90;;;;;;5028676;28;20516;-70
2022/04/12 04:16:32;;;;;;;6.00;4.30;;;5.30;99.90;;;;;;5028293;28;20439;-70
2022/04/12 04:18:58;;;;;;;6.23;4.90;;;5.30;99.90;;;;;;5028264;28;20418;-70
2022/04/12 04:21:24;;;;;;;6.70;4.63;;;5.50;99.90;;;;;;5010153;28;20318;-70
2022/04/12 04:23:49;;;;;;;8.47;5.40;;;5.50;99.90;;;;;;5010302;28;20470;-70
2022/04/12 04:26:15;;;;;;;11.77;5.83;;;5.50;99.90;;;;;;5010498;28;20212;-70
2022/04/12 04:28:42;;;;;;;7.40;5.60;;;5.50;99.90;;;;;;5027987;28;20184;-70
2022/04/12 04:31:11;;;;;;;6.70;4.77;;;5.50;99.90;;;;;;5009788;28;20181;-70
2022/04/12 04:33:36;;;;;;;7.93;5.37;;;5.40;99.90;;;;;;5027433;28;20429;-70
2022/04/12 04:36:02;;;;;;;7.10;5.23;;;5.40;99.90;;;;;;5027373;28;20427;-70
2022/04/12 04:38:28;;;;;;;9.57;4.73;;;5.30;99.90;;;;;;5027455;28;20180;-70
2022/04/12 04:40:54;;;;;;;9.33;6.00;;;5.30;99.90;;;;;;5009498;28;20460;-70
2022/04/12 04:43:19;;;;;;;7.30;5.20;;;5.30;99.90;;;;;;5027311;28;20216;-70
2022/04/12 04:45:45;;;;;;;8.33;5.63;;;5.30;99.90;;;;;;5027112;28;20211;-70
2022/04/12 04:48:11;;;;;;;7.13;5.40;;;5.20;99.90;;;;;;5027354;28;20180;-70
2022/04/12 04:50:37;;;;;;;7.60;5.73;;;5.30;99.90;;;;;;5027232;28;20411;-71
2022/04/12 04:53:05;;;;;;;11.47;5.77;;;5.20;99.90;;;;;;5027224;28;20950;-70
2022/04/12 04:55:33;;;;;;;7.93;6.40;;;5.20;99.90;;;;;;5027387;28;21015;-70
2022/04/12 04:57:59;;;;;;;8.07;6.63;;;5.30;99.90;;;;;;5027505;28;20431;-70
2022/04/12 05:00:29;;;;;;;12.43;11.20;;;5.30;99.90;;;;;;5027404;28;20432;-70
2022/04/12 05:02:56;;;;;;;10.43;9.30;;;5.20;99.90;;;;;;5027546;28;20455;-70
2022/04/12 05:05:21;;;;;;;8.87;7.97;;;5.20;99.90;;;;;;5027200;28;20764;-70
2022/04/12 05:07:49;;;;;;;6.73;5.10;;;5.20;99.90;;;;;;5027347;28;20430;-70
2022/04/12 05:10:35;;;;;;;27.10;5.70;;;5.30;99.90;;;;;;5027115;28;20416;-70
2022/04/12 05:13:02;;;;;;;7.43;4.57;;;5.30;99.90;;;;;;5026703;28;20446;-70
2022/04/12 05:15:27;;;;;;;9.00;5.50;;;5.40;99.90;;;;;;5027048;28;20438;-70
2022/04/12 05:17:54;;;;;;;7.30;5.23;;;5.40;99.90;;;;;;5027006;28;20458;-70
2022/04/12 05:20:22;;;;;;;6.53;4.90;;;5.40;99.90;;;;;;5011903;28;20454;-70
2022/04/12 05:22:48;;;;;;;10.00;5.20;;;5.50;99.90;;;;;;5031691;28;21092;-70
2022/04/12 05:25:14;;;;;;;20.80;6.10;;;5.50;99.90;;;;;;5031010;28;20526;-70
2022/04/12 05:27:41;;;;;;;7.00;4.67;;;5.60;99.90;;;;;;5031058;28;20415;-70
2022/04/12 05:30:08;;;;;;;7.77;4.30;;;5.60;99.90;;;;;;5013182;28;20424;-70
2022/04/12 05:32:37;;;;;;;8.53;5.00;;;5.60;99.90;;;;;;5030717;28;20994;-70
2022/04/12 05:35:07;;;;;;;8.87;4.20;;;5.80;99.90;;;;;;5031065;28;20434;-70
2022/04/12 05:37:40;;;;;;;9.23;5.80;;;5.90;99.90;;;;;;5030487;28;20411;-70
2022/04/12 05:40:06;;;;;;;11.43;4.77;;;6.00;99.90;;;;;;5030952;28;20510;-70
2022/04/12 05:42:31;;;;;;;9.80;4.97;;;6.20;99.90;;;;;;5031063;28;20418;-70
2022/04/12 05:44:57;;;;;;;6.20;4.80;;;6.30;99.90;;;;;;5012859;28;20966;-70
2022/04/12 05:47:22;;;;;;;7.90;4.47;;;6.50;99.90;;;;;;5030731;28;20204;-70
2022/04/12 05:49:48;;;;;;;6.07;4.70;;;6.60;99.90;;;;;;5030766;28;20173;-70
2022/04/12 05:52:14;;;;;;;6.50;4.43;;;6.80;99.90;;;;;;5030596;28;20645;-70
2022/04/12 05:54:39;;;;;;;7.30;4.87;;;7.00;99.90;;;;;;5030675;28;20188;-70
2022/04/12 05:57:05;;;;;;;5.67;4.20;;;7.20;99.90;;;;;;5030615;28;20208;-70
2022/04/12 05:59:31;;;;;;;8.57;5.37;;;7.50;99.90;;;;;;5030257;28;20214;-70
2022/04/12 06:01:56;;;;;;;9.27;5.00;;;7.80;99.90;;;;;;5030128;28;20180;-70
2022/04/12 06:04:22;;;;;;;10.70;5.20;;;8.10;99.90;;;;;;5030128;28;20208;-70
2022/04/12 06:06:47;;;;;;;9.47;5.00;;;8.30;99.90;;;;;;5029938;28;20267;-70
2022/04/12 06:09:13;;;;;;;8.00;5.10;;;8.60;99.90;;;;;;5029919;28;20291;-70
2022/04/12 06:11:39;;;;;;;6.70;5.43;;;8.80;99.90;;;;;;5029934;28;20220;-70
2022/04/12 06:14:04;;;;;;;11.00;5.70;;;9.00;99.90;;;;;;5029928;28;20188;-70
2022/04/12 06:16:30;;;;;;;8.23;5.30;;;9.20;99.90;;;;;;5029660;28;20701;-70
2022/04/12 06:18:56;;;;;;;6.97;5.20;;;9.30;99.90;;;;;;5029809;28;20242;-70
2022/04/12 06:21:22;;;;;;;8.80;6.23;;;9.60;99.90;;;;;;5029688;28;20220;-70
2022/04/12 06:23:47;;;;;;;13.47;5.53;;;9.60;99.90;;;;;;5011751;28;20216;-70
2022/04/12 06:26:13;;;;;;;8.30;5.67;;;9.50;99.90;;;;;;5029609;28;21023;-70
2022/04/12 06:28:39;;;;;;;14.10;8.53;;;9.60;99.90;;;;;;5029935;28;20191;-70
2022/04/12 06:31:05;;;;;;;16.57;12.00;;;9.80;99.90;;;;;;5029673;28;20185;-70
2022/04/12 06:33:31;;;;;;;12.30;9.60;;;9.90;99.90;;;;;;5029705;28;20223;-70
2022/04/12 06:35:56;;;;;;;12.00;7.30;;;10.00;99.90;;;;;;5029382;28;20443;-70
2022/04/12 06:38:22;;;;;;;8.30;6.60;;;10.30;99.30;;;;;;5029430;28;20211;-70
2022/04/12 06:40:51;;;;;;;9.13;6.03;;;10.70;98.70;;;;;;5029684;28;20280;-70
2022/04/12 06:43:16;;;;;;;6.07;5.47;;;11.00;97.80;;;;;;5029445;28;20659;-70
2022/04/12 06:45:43;;;;;;;9.80;5.40;;;11.30;98.20;;;;;;5029815;28;20445;-70
2022/04/12 06:48:08;;;;;;;6.67;4.50;;;11.60;98.10;;;;;;5030116;28;20186;-70
2022/04/12 06:50:35;;;;;;;6.33;4.93;;;12.00;94.30;;;;;;5030086;28;20419;-70
2022/04/12 06:53:03;;;;;;;8.43;5.43;;;12.20;94.80;;;;;;5012189;28;20460;-70
2022/04/12 06:55:29;;;;;;;6.33;5.70;;;12.20;95.50;;;;;;5012075;28;20823;-70
2022/04/12 06:57:55;;;;;;;8.40;5.87;;;12.20;94.80;;;;;;5030449;28;20499;-70
2022/04/12 07:00:21;;;;;;;6.93;5.20;;;12.30;95.40;;;;;;5030993;28;20534;-71
2022/04/12 07:02:46;;;;;;;9.17;6.27;;;12.30;94.20;;;;;;5011788;28;20681;-70
2022/04/12 07:05:12;;;;;;;9.93;5.60;;;12.30;94.30;;;;;;5029547;28;20186;-71
2022/04/12 07:07:39;;;;;;;8.67;6.37;;;12.50;94.70;;;;;;5029562;28;20203;-70
2022/04/12 07:10:10;;;;;;;6.67;5.37;;;12.60;95.20;;;;;;5029276;28;20840;-70
2022/04/12 07:12:37;;;;;;;10.70;6.13;;;12.70;95.20;;;;;;5011706;28;21037;-70
2022/04/12 07:15:04;;;;;;;7.77;6.30;;;12.80;95.10;;;;;;5010958;28;21247;-70
2022/04/12 07:17:30;;;;;;;6.93;6.07;;;13.00;94.80;;;;;;5029536;28;20421;-70
2022/04/12 07:19:55;;;;;;;13.97;6.00;;;13.00;94.60;;;;;;5028739;28;20460;-70
2022/04/12 07:22:21;;;;;;;9.23;5.60;;;13.10;94.50;;;;;;5028626;28;20863;-70
2022/04/12 07:24:47;;;;;;;8.93;5.60;;;13.40;94.80;;;;;;5010321;28;20870;-70
2022/04/12 07:27:13;;;;;;;12.30;6.17;;;13.50;94.40;;;;;;5028699;28;20205;-70
2022/04/12 07:29:38;;;;;;;7.00;5.23;;;13.50;93.90;;;;;;5028319;28;20183;-71
2022/04/12 07:32:05;;;;;;;7.90;5.23;;;13.40;93.80;;;;;;5028405;28;20717;-71
2022/04/12 07:34:30;;;;;;;15.40;6.60;;;13.50;93.10;;;;;;5028263;28;20421;-70
2022/04/12 07:36:56;;;;;;;9.50;6.17;;;13.60;92.20;;;;;;5028438;28;20454;-70
2022/04/12 07:39:23;;;;;;;11.03;6.43;;;13.60;92.30;;;;;;5010316;28;20184;-70
2022/04/12 07:41:50;;;;;;;10.93;5.90;;;13.70;92.00;;;;;;5027782;28;20422;-71
2022/04/12 07:44:17;;;;;;;10.40;5.40;;;13.80;92.00;;;;;;5010176;28;20465;-71
2022/04/12 07:46:43;;;;;;;8.57;4.90;;;14.00;92.40;;;;;;5028224;28;20447;-70
2022/04/12 07:49:09;;;;;;;9.20;5.33;;;14.20;92.80;;;;;;5028065;28;20979;-71
2022/04/12 07:51:35;;;;;;;10.90;6.00;;;14.50;92.60;;;;;;5028222;28;20183;-71
2022/04/12 07:54:01;;;;;;;19.30;9.63;;;14.60;92.00;;;;;;5028209;28;20426;-71
2022/04/12 07:56:27;;;;;;;64.33;33.67;;;14.60;91.90;;;;;;5029048;28;20439;-71
2022/04/12 07:58:53;;;;;;;16.90;9.83;;;14.70;91.80;;;;;;5029698;28;20430;-71
2022/04/12 08:01:19;;;;;;;21.13;7.80;;;15.00;93.00;;;;;;5027870;28;20465;-71
2022/04/12 08:03:45;;;;;;;15.80;8.00;;;15.10;92.10;;;;;;5027811;28;20211;-71
2022/04/12 08:06:10;;;;;;;12.90;7.47;;;15.20;91.50;;;;;;5027719;28;20954;-71
2022/04/12 08:08:36;;;;;;;16.03;7.77;;;15.20;91.90;;;;;;5027694;28;20218;-71
2022/04/12 08:11:02;;;;;;;13.83;8.90;;;15.30;92.40;;;;;;5027681;28;20665;-71
2022/04/12 08:13:28;;;;;;;16.47;9.07;;;15.40;91.60;;;;;;5027832;28;20180;-71
2022/04/12 08:15:54;;;;;;;13.70;6.93;;;15.60;92.00;;;;;;5027117;28;20435;-71
2022/04/12 08:18:19;;;;;;;10.10;6.43;;;15.70;92.20;;;;;;5028055;28;20697;-71
2022/04/12 08:20:49;;;;;;;8.80;6.03;;;16.10;91.70;;;;;;5028330;28;20275;-71
2022/04/12 08:23:16;;;;;;;9.03;5.80;;;16.20;91.60;;;;;;5028558;28;20204;-71
2022/04/12 08:25:42;;;;;;;10.50;6.43;;;16.30;90.80;;;;;;5028056;28;20581;-71
2022/04/12 08:28:08;;;;;;;11.30;6.90;;;16.50;90.20;;;;;;5028037;28;21277;-71
2022/04/12 08:30:34;;;;;;;10.33;5.80;;;16.60;90.20;;;;;;5010054;28;20279;-71
2022/04/12 08:33:01;;;;;;;13.23;6.27;;;16.50;90.50;;;;;;5027985;28;20507;-71
2022/04/12 08:35:27;;;;;;;8.77;5.50;;;16.60;89.60;;;;;;5027646;28;20527;-71
2022/04/12 08:37:53;;;;;;;10.17;4.90;;;16.70;90.20;;;;;;5027351;28;20421;-71
2022/04/12 08:40:19;;;;;;;8.97;6.37;;;16.70;90.00;;;;;;5027297;28;20989;-71
2022/04/12 08:42:45;;;;;;;7.20;5.13;;;16.80;88.90;;;;;;5027215;28;20212;-71
2022/04/12 08:45:11;;;;;;;10.43;5.33;;;17.00;89.50;;;;;;5009036;28;20509;-71
2022/04/12 08:47:38;;;;;;;8.67;4.50;;;17.10;88.00;;;;;;5027135;28;20429;-71
2022/04/12 08:50:06;;;;;;;11.60;4.60;;;17.20;86.90;;;;;;5027127;28;20426;-71
2022/04/12 08:52:32;;;;;;;9.13;4.73;;;17.30;86.90;;;;;;5026959;28;20452;-71
2022/04/12 08:54:58;;;;;;;12.20;5.87;;;17.40;87.00;;;;;;5029594;28;20754;-71
2022/04/12 08:57:24;;;;;;;9.93;5.17;;;17.50;85.30;;;;;;5031213;28;20200;-71
2022/04/12 08:59:50;;;;;;;12.13;5.27;;;17.70;87.10;;;;;;5031222;28;20421;-71
2022/04/12 09:02:16;;;;;;;11.40;5.50;;;17.90;86.10;;;;;;5031157;28;20185;-71
2022/04/12 09:04:41;;;;;;;14.80;6.50;;;18.10;85.20;;;;;;5031031;28;20477;-71
2022/04/12 09:07:09;;;;;;;9.27;5.40;;;18.30;82.50;;;;;;5031111;28;20830;-71
2022/04/12 09:09:38;;;;;;;7.90;3.97;;;18.60;77.20;;;;;;5031237;28;20186;-71
2022/04/12 09:12:22;;;;;;;10.97;5.20;;;18.90;77.10;;;;;;5031043;28;20872;-71
2022/04/12 09:14:56;;;;;;;10.57;4.53;;;19.30;75.20;;;;;;5031130;28;20437;-71
2022/04/12 09:17:29;;;;;;;8.30;3.73;;;19.50;74.40;;;;;;5030959;28;20450;-71
2022/04/12 09:19:55;;;;;;;7.83;4.10;;;20.00;74.10;;;;;;5013221;28;20427;-71
2022/04/12 09:22:22;;;;;;;10.53;3.87;;;20.20;71.90;;;;;;5012944;28;20415;-71
2022/04/12 09:24:53;;;;;;;8.73;4.00;;;20.30;72.70;;;;;;5030647;28;20254;-71
2022/04/12 09:27:21;;;;;;;6.80;4.10;;;20.20;70.10;;;;;;5030660;28;20442;-71
2022/04/12 09:30:00;;;;;;;6.70;3.70;;;20.10;70.70;;;;;;5030803;28;20473;-71
2022/04/12 09:32:28;;;;;;;7.40;3.60;;;20.10;72.00;;;;;;5030611;28;20418;-71
2022/04/12 09:34:55;;;;;;;5.27;3.40;;;20.20;72.60;;;;;;5030585;28;20419;-71
2022/04/12 09:37:24;;;;;;;6.97;3.77;;;20.20;70.70;;;;;;5030575;28;20474;-71
2022/04/12 09:40:13;;;;;;;7.20;3.50;;;20.40;71.90;;;;;;5030555;28;21032;-71
2022/04/12 09:42:57;;;;;;;8.47;3.30;;;20.50;69.70;;;;;;5030638;28;20504;-72
2022/04/12 09:45:24;;;;;;;6.40;3.70;;;20.70;68.90;;;;;;5030610;28;20480;-71
2022/04/12 09:47:54;;;;;;;6.83;4.03;;;21.00;71.30;;;;;;5030609;28;20411;-71
2022/04/12 09:50:21;;;;;;;7.10;3.70;;;21.20;68.90;;;;;;5030809;28;20418;-71
2022/04/12 09:53:04;;;;;;;6.13;4.13;;;21.60;71.40;;;;;;5030607;28;20510;-71
2022/04/12 09:55:54;;;;;;;11.90;4.60;;;21.90;69.60;;;;;;5030359;28;20457;-71
2022/04/12 09:58:23;;;;;;;8.43;3.90;;;22.00;69.70;;;;;;5030092;28;20435;-71
2022/04/12 10:00:48;;;;;;;9.37;4.07;;;22.30;68.70;;;;;;5030577;28;20419;-71
2022/04/12 10:03:19;;;;;;;9.27;3.53;;;22.50;68.80;;;;;;5030646;28;20465;-71
2022/04/12 10:05:45;;;;;;;9.60;4.07;;;22.40;67.00;;;;;;5012262;28;20281;-71
2022/04/12 10:08:14;;;;;;;4.30;3.10;;;22.40;68.00;;;;;;5030901;28;20423;-71
2022/04/12 10:10:44;;;;;;;7.40;3.90;;;22.60;69.20;;;;;;5013698;28;21017;-71
2022/04/12 10:13:11;;;;;;;9.47;4.13;;;22.90;67.60;;;;;;5030868;28;20927;-71
2022/04/12 10:15:37;;;;;;;5.30;3.60;;;23.10;67.90;;;;;;5030442;28;20488;-71
2022/04/12 10:18:03;;;;;;;4.03;3.30;;;23.50;66.40;;;;;;5030095;28;20503;-71
2022/04/12 10:20:30;;;;;;;8.90;3.57;;;23.90;66.90;;;;;;5012160;28;20425;-71
2022/04/12 10:22:57;;;;;;;5.70;2.90;;;24.20;63.90;;;;;;5030295;28;20540;-71
2022/04/12 10:25:24;;;;;;;6.40;3.73;;;24.30;64.80;;;;;;5030044;28;20455;-71
2022/04/12 10:27:55;;;;;;;5.53;2.53;;;24.60;60.30;;;;;;5030808;28;20426;-72
2022/04/12 10:30:25;;;;;;;7.47;3.10;;;24.60;61.00;;;;;;5030874;28;20777;-72
2022/04/12 10:33:01;;;;;;;6.63;2.47;;;24.80;59.80;;;;;;5030360;28;21005;-72
2022/04/12 10:35:56;;;;;;;6.20;2.83;;;24.90;58.40;;;;;;5012350;28;20444;-72
2022/04/12 10:38:23;;;;;;;11.67;2.63;;;25.10;60.00;;;;;;5012224;28;20434;-72
2022/04/12 10:40:57;;;;;;;6.60;2.50;;;25.20;58.00;;;;;;5030037;28;20426;-72
2022/04/12 10:43:33;;;;;;;6.37;2.33;;;25.40;58.90;;;;;;5029790;28;20456;-73
2022/04/12 10:46:01;;;;;;;5.80;2.07;;;25.90;59.20;;;;;;5029661;28;20468;-72
2022/04/12 10:48:31;;;;;;;12.40;2.50;;;26.30;55.60;;;;;;5029607;28;20984;-72
2022/04/12 10:50:59;;;;;;;5.53;2.40;;;26.50;54.80;;;;;;5011781;28;21038;-72
2022/04/12 10:53:46;;;;;;;3.60;1.93;;;26.20;52.90;;;;;;5029414;28;20419;-72
2022/04/12 10:56:13;;;;;;;3.23;1.73;;;25.80;54.00;;;;;;5015815;28;20459;-72
2022/04/12 10:58:40;;;;;;;3.63;2.20;;;25.40;53.20;;;;;;5029743;28;20458;-72
2022/04/12 11:01:10;;;;;;;4.70;1.97;;;25.30;54.20;;;;;;5029798;28;20985;-71
2022/04/12 11:03:42;;;;;;;4.60;2.20;;;25.30;53.50;;;;;;5029512;28;20565;-72
2022/04/12 11:06:21;;;;;;;3.10;2.07;;;25.20;50.90;;;;;;5029311;28;21216;-72
2022/04/12 11:08:49;;;;;;;4.10;1.67;;;25.40;52.00;;;;;;5029063;28;20432;-72
2022/04/12 11:11:23;;;;;;;1.47;1.37;;;25.40;50.50;;;;;;5029251;28;20414;-72
2022/04/12 11:13:52;;;;;;;2.80;1.63;;;25.50;49.10;;;;;;5011278;28;20440;-72
2022/04/12 11:16:19;;;;;;;4.40;1.87;;;25.50;47.80;;;;;;5030747;28;20445;-72
2022/04/12 11:18:49;;;;;;;3.90;2.13;;;25.50;48.80;;;;;;5031274;28;20479;-73
2022/04/12 11:21:16;;;;;;;2.70;1.73;;;25.50;52.40;;;;;;5031516;28;20441;-72
2022/04/12 11:23:48;;;;;;;4.17;2.40;;;25.50;51.70;;;;;;5030765;28;20468;-72
2022/04/12 11:26:40;;;;;;;3.97;2.07;;;25.60;52.20;;;;;;5011616;28;20478;-72
2022/04/12 11:29:14;;;;;;;4.00;1.57;;;25.80;53.00;;;;;;5029039;28;20503;-72
2022/04/12 11:31:48;;;;;;;2.57;1.70;;;25.70;48.00;;;;;;5029176;28;20410;-72
2022/04/12 11:34:14;;;;;;;2.90;1.20;;;26.00;44.60;;;;;;5028767;28;20428;-72
2022/04/12 11:36:51;;;;;;;3.73;1.13;;;25.90;39.30;;;;;;5028660;28;20575;-72
2022/04/12 11:39:28;;;;;;;2.40;1.03;;;25.90;38.40;;;;;;5028595;28;20417;-72
2022/04/12 11:42:01;;;;;;;1.67;0.90;;;26.20;39.40;;;;;;5028524;28;20418;-72
2022/04/12 11:44:27;;;;;;;3.03;1.27;;;26.50;36.50;;;;;;5028455;28;20472;-71
2022/04/12 11:47:06;;;;;;;2.70;1.10;;;26.40;37.80;;;;;;5028177;28;20454;-72
2022/04/12 11:49:34;;;;;;;4.53;0.87;;;26.10;36.70;;;;;;5028396;28;20448;-72
2022/04/12 11:52:01;;;;;;;1.40;0.90;;;25.90;37.30;;;;;;5028279;28;20446;-72
2022/04/12 11:54:32;;;;;;;1.90;1.30;;;26.30;40.20;;;;;;5010260;28;20486;-72
2022/04/12 11:57:09;;;;;;;2.50;1.10;;;26.10;36.80;;;;;;5027818;28;20497;-72
2022/04/12 11:59:44;;;;;;;1.77;1.00;;;26.10;37.50;;;;;;5028070;28;20419;-71
2022/04/12 12:02:10;;;;;;;1.80;1.37;;;25.60;35.20;;;;;;5027781;28;20951;-71
2022/04/12 12:04:43;;;;;;;2.20;0.90;;;25.70;38.40;;;;;;5027831;28;20489;-71
2022/04/12 12:07:08;;;;;;;2.50;1.00;;;25.80;37.80;;;;;;5010221;28;20456;-70
2022/04/12 12:09:35;;;;;;;1.87;0.93;;;26.00;37.90;;;;;;5027976;28;20430;-72
2022/04/12 12:12:02;;;;;;;2.20;1.23;;;26.10;37.00;;;;;;5027711;28;20186;-72
2022/04/12 12:14:28;;;;;;;4.10;1.10;;;25.70;35.60;;;;;;5027871;28;20441;-72
2022/04/12 12:17:06;;;;;;;3.70;0.90;;;25.50;37.20;;;;;;5027782;28;20486;-72
2022/04/12 12:19:33;;;;;;;1.20;0.90;;;25.40;36.70;;;;;;5027806;28;20422;-72
2022/04/12 12:22:01;;;;;;;2.90;0.90;;;25.10;35.50;;;;;;5027781;28;20489;-72
2022/04/12 12:24:27;;;;;;;1.20;0.90;;;25.20;36.10;;;;;;5027350;28;20481;-72
2022/04/12 12:26:56;;;;;;;2.13;1.00;;;24.90;35.70;;;;;;5027566;28;20915;-71
2022/04/12 12:29:24;;;;;;;1.10;1.00;;;24.60;36.70;;;;;;5028294;28;20429;-72
2022/04/12 12:31:55;;;;;;;3.00;1.30;;;24.60;36.40;;;;;;5029428;28;20545;-72
2022/04/12 12:34:28;;;;;;;1.77;0.93;;;24.50;36.30;;;;;;5027630;28;20427;-72
2022/04/12 12:36:54;;;;;;;0.97;0.83;;;24.70;35.40;;;;;;5027522;28;20506;-72
2022/04/12 12:39:19;;;;;;;5.87;1.00;;;24.80;35.50;;;;;;5027682;28;20525;-71
2022/04/12 12:41:45;;;;;;;1.87;0.87;;;24.60;34.50;;;;;;5027501;28;20192;-72
2022/04/12 12:44:12;;;;;;;3.93;0.87;;;24.70;35.30;;;;;;5027470;28;20217;-72
2022/04/12 12:46:38;;;;;;;4.67;1.10;;;24.50;35.20;;;;;;5027413;28;20293;-72
2022/04/12 12:49:12;;;;;;;3.03;1.00;;;24.10;34.60;;;;;;5009515;28;20536;-71
2022/04/12 12:51:40;;;;;;;4.30;1.20;;;24.00;34.20;;;;;;5027387;28;20428;-72
2022/04/12 12:54:09;;;;;;;1.50;1.00;;;24.00;36.20;;;;;;5009509;28;20448;-72